Airport ID:KRTS
Update Time (UTC):23/02/2020 11:10
Wind Speed (Knots):2
Wind Direction (Magnetic):360
Temperature (°C):-2
Dew Point (°C):-11
Humidity (%):53
Altimeter (inHg):30.14
Density Altitude (Feet):
Visibility (Miles):10+
Clouds (Hundreds of feet):CLR
Present Weather:
METAR:METAR KRTS 231110Z AUTO 00000KT 10SM CLR M02/M10 A3014 RMK AO2

The data displayed is for advisory purposes only and is not to be used for flight planning or operations.

This page is not automatically refreshed. Reload the page to see current data.